createdAt,value
2023-03-29T00:02:04.033Z,0.73
2023-03-29T00:04:30.819Z,0.76
2023-03-29T00:06:57.843Z,0.74
2023-03-29T00:09:26.708Z,0.84
2023-03-29T00:11:53.504Z,0.78
2023-03-29T00:14:20.330Z,0.67
2023-03-29T00:16:47.236Z,0.57
2023-03-29T00:19:13.991Z,0.56
2023-03-29T00:21:40.904Z,0.72
2023-03-29T00:24:07.818Z,0.72
2023-03-29T00:26:34.445Z,0.63
2023-03-29T00:29:01.278Z,0.69
2023-03-29T00:31:28.577Z,0.60
2023-03-29T00:33:55.840Z,0.45
2023-03-29T00:36:23.322Z,0.48
2023-03-29T00:38:50.036Z,0.42
2023-03-29T00:41:16.735Z,0.30
2023-03-29T00:43:56.302Z,0.28
2023-03-29T00:46:24.585Z,0.18
2023-03-29T00:48:55.009Z,0.22
2023-03-29T00:51:24.813Z,0.14
2023-03-29T00:53:56.125Z,0.00
2023-03-29T00:56:30.582Z,-0.06
2023-03-29T00:59:09.471Z,0.04
2023-03-29T01:01:43.285Z,0.14
2023-03-29T01:04:18.519Z,0.18
2023-03-29T01:07:06.977Z,0.31
2023-03-29T01:09:37.399Z,0.20
2023-03-29T01:12:12.209Z,0.14
2023-03-29T01:14:50.286Z,0.15
2023-03-29T01:17:21.828Z,0.34
2023-03-29T01:19:58.331Z,0.10
2023-03-29T01:22:55.620Z,0.10
2023-03-29T01:25:32.762Z,0.12
2023-03-29T01:28:12.633Z,0.13
2023-03-29T01:30:53.370Z,0.18
2023-03-29T01:33:30.420Z,0.16
2023-03-29T01:36:14.069Z,0.18
2023-03-29T01:38:48.607Z,0.22
2023-03-29T01:41:15.761Z,0.28
2023-03-29T01:43:58.639Z,0.29
2023-03-29T01:46:33.474Z,0.29
2023-03-29T01:49:11.253Z,0.18
2023-03-29T01:51:44.949Z,0.15
2023-03-29T01:54:25.861Z,0.11
2023-03-29T01:56:53.848Z,0.21
2023-03-29T01:59:26.238Z,0.17
2023-03-29T02:01:58.432Z,0.14
2023-03-29T02:04:44.732Z,0.15
2023-03-29T02:07:13.456Z,0.12
2023-03-29T02:09:41.194Z,0.13
2023-03-29T02:12:10.783Z,0.19
2023-03-29T02:14:37.509Z,0.15
2023-03-29T02:17:16.655Z,0.12
2023-03-29T02:19:50.089Z,0.13
2023-03-29T02:22:24.519Z,0.12
2023-03-29T02:24:54.611Z,0.03
2023-03-29T02:27:21.328Z,-0.08
2023-03-29T02:29:48.143Z,-0.04
2023-03-29T02:32:41.785Z,0.01
2023-03-29T02:35:13.949Z,0.18
2023-03-29T02:37:44.306Z,0.26
2023-03-29T02:40:13.152Z,0.35
2023-03-29T02:42:43.304Z,0.33
2023-03-29T02:45:12.837Z,0.26
2023-03-29T02:47:43.165Z,0.30
2023-03-29T02:50:10.268Z,0.38
2023-03-29T02:52:41.025Z,0.34
2023-03-29T02:55:15.033Z,0.49
2023-03-29T02:57:43.531Z,0.49
2023-03-29T03:00:11.875Z,0.50
2023-03-29T03:02:38.755Z,0.48
2023-03-29T03:05:08.327Z,0.54
2023-03-29T03:07:35.179Z,0.62
2023-03-29T03:10:03.885Z,0.70
2023-03-29T03:12:30.768Z,0.73
2023-03-29T03:14:58.361Z,0.72
2023-03-29T03:17:25.358Z,0.67
2023-03-29T03:19:53.185Z,0.61
2023-03-29T03:22:20.428Z,0.65
2023-03-29T03:24:47.202Z,0.67
2023-03-29T03:27:13.983Z,0.70
2023-03-29T03:29:41.588Z,0.77
2023-03-29T03:32:08.281Z,0.73
2023-03-29T03:35:13.401Z,0.73
2023-03-29T03:37:40.909Z,0.82
2023-03-29T03:40:09.397Z,0.80
2023-03-29T03:42:36.043Z,0.81
2023-03-29T03:45:03.003Z,0.81
2023-03-29T03:47:46.147Z,0.81
2023-03-29T03:50:21.910Z,0.83
2023-03-29T03:52:49.024Z,0.75
2023-03-29T03:55:16.408Z,0.83
2023-03-29T03:57:52.060Z,0.72
2023-03-29T04:00:20.405Z,0.50
2023-03-29T04:02:58.151Z,0.58
2023-03-29T04:05:25.457Z,0.60
2023-03-29T04:07:54.260Z,0.80
2023-03-29T04:10:33.769Z,0.76
2023-03-29T04:13:23.467Z,0.80
2023-03-29T04:16:12.930Z,0.72
2023-03-29T04:18:39.924Z,0.73
2023-03-29T04:21:06.920Z,0.78
2023-03-29T04:23:36.149Z,0.78
2023-03-29T04:26:03.160Z,0.81
2023-03-29T04:28:47.933Z,0.79
2023-03-29T04:31:20.151Z,0.88
2023-03-29T04:34:13.115Z,0.86
2023-03-29T04:36:40.798Z,0.91
2023-03-29T04:39:18.030Z,0.92
2023-03-29T04:41:47.346Z,0.80
2023-03-29T04:44:21.392Z,0.74
2023-03-29T04:46:48.584Z,0.91
2023-03-29T04:49:30.478Z,0.86
2023-03-29T04:51:58.532Z,0.83
2023-03-29T04:54:28.087Z,0.82
2023-03-29T04:57:24.230Z,0.80
2023-03-29T05:00:18.121Z,0.78
2023-03-29T05:03:10.001Z,0.92
2023-03-29T05:05:41.550Z,0.94
2023-03-29T05:08:09.543Z,0.93
2023-03-29T05:10:54.748Z,0.94
2023-03-29T05:13:21.862Z,1.12
2023-03-29T05:15:48.555Z,1.07
2023-03-29T05:18:15.545Z,1.00
2023-03-29T05:20:42.246Z,1.06
2023-03-29T05:23:12.542Z,1.17
2023-03-29T05:26:09.926Z,1.23
2023-03-29T05:28:37.774Z,1.29
2023-03-29T05:31:05.804Z,1.35
2023-03-29T05:33:35.524Z,1.47
2023-03-29T05:36:09.169Z,1.61
2023-03-29T05:38:41.520Z,1.68
2023-03-29T05:41:08.576Z,1.71
2023-03-29T05:43:57.914Z,1.87
2023-03-29T05:46:25.806Z,1.92
2023-03-29T05:48:55.993Z,1.82
2023-03-29T05:51:33.282Z,1.83
2023-03-29T05:54:00.728Z,1.83
2023-03-29T05:56:27.883Z,1.77
2023-03-29T05:58:57.017Z,1.74
2023-03-29T06:01:24.592Z,1.72
2023-03-29T06:03:58.843Z,1.71
2023-03-29T06:06:32.676Z,1.70
2023-03-29T06:09:01.353Z,1.69
2023-03-29T06:11:36.899Z,1.73
2023-03-29T06:14:09.470Z,1.78
2023-03-29T06:16:42.848Z,1.88
2023-03-29T06:19:10.705Z,1.97
2023-03-29T06:21:38.668Z,2.11
2023-03-29T06:24:06.890Z,2.18
2023-03-29T06:26:39.018Z,2.34
2023-03-29T06:29:06.013Z,2.49
2023-03-29T06:31:36.168Z,2.59
2023-03-29T06:34:04.798Z,2.61
2023-03-29T06:36:51.112Z,2.67
2023-03-29T06:39:20.500Z,2.80
2023-03-29T06:42:21.789Z,2.88
2023-03-29T06:45:09.037Z,2.96
2023-03-29T06:47:37.208Z,3.05
2023-03-29T06:50:04.301Z,3.23
2023-03-29T06:52:37.046Z,3.35
2023-03-29T06:55:07.645Z,3.60
2023-03-29T06:57:36.016Z,3.51
2023-03-29T07:00:14.151Z,3.45
2023-03-29T07:03:07.304Z,3.42
2023-03-29T07:05:36.517Z,3.59
2023-03-29T07:08:07.843Z,3.64
2023-03-29T07:10:48.937Z,3.71
2023-03-29T07:13:33.828Z,4.01
2023-03-29T07:16:04.156Z,4.18
2023-03-29T07:18:41.381Z,4.13
2023-03-29T07:21:17.556Z,4.16
2023-03-29T07:23:44.343Z,4.18
2023-03-29T07:26:12.072Z,4.22
2023-03-29T07:28:39.474Z,4.18
2023-03-29T07:31:11.049Z,4.17
2023-03-29T07:33:44.626Z,4.17
2023-03-29T07:36:11.701Z,4.17
2023-03-29T07:38:38.567Z,4.19
2023-03-29T07:41:12.941Z,4.06
2023-03-29T07:43:47.567Z,4.12
2023-03-29T07:46:17.530Z,4.21
2023-03-29T07:48:44.202Z,4.32
2023-03-29T07:51:13.832Z,4.29
2023-03-29T07:53:44.783Z,4.37
2023-03-29T07:56:27.066Z,4.46
2023-03-29T07:59:11.776Z,4.50
2023-03-29T08:01:41.173Z,4.38
2023-03-29T08:04:25.191Z,4.38
2023-03-29T08:07:12.688Z,4.19
2023-03-29T08:09:55.306Z,4.34
2023-03-29T08:12:32.064Z,4.34
2023-03-29T08:14:59.549Z,4.40
2023-03-29T08:17:31.349Z,4.46
2023-03-29T08:19:58.255Z,4.34
2023-03-29T08:22:25.274Z,4.28
2023-03-29T08:25:24.248Z,4.45
2023-03-29T08:27:53.691Z,4.33
2023-03-29T08:30:49.799Z,4.46
2023-03-29T08:33:17.074Z,4.48
2023-03-29T08:35:46.485Z,4.69
2023-03-29T08:38:19.938Z,4.85
2023-03-29T08:40:49.173Z,5.01
2023-03-29T08:43:48.902Z,5.07
2023-03-29T08:47:09.140Z,5.18
2023-03-29T08:49:44.047Z,5.27
2023-03-29T08:52:21.307Z,5.43
2023-03-29T08:54:53.101Z,5.70
2023-03-29T08:57:46.624Z,5.88
2023-03-29T09:00:42.943Z,5.81
2023-03-29T09:03:22.515Z,5.86
2023-03-29T09:05:56.692Z,5.64
2023-03-29T09:08:26.020Z,5.97
2023-03-29T09:11:12.719Z,6.30
2023-03-29T09:13:46.434Z,6.56
2023-03-29T09:16:21.834Z,6.69
2023-03-29T09:19:12.497Z,6.78
2023-03-29T09:21:43.564Z,6.83
2023-03-29T09:24:20.300Z,6.67
2023-03-29T09:27:32.404Z,6.72
2023-03-29T09:30:28.614Z,6.78
2023-03-29T09:33:23.707Z,6.91
2023-03-29T09:36:08.505Z,6.88
2023-03-29T09:38:43.314Z,6.80
2023-03-29T09:41:21.909Z,6.93
2023-03-29T09:43:52.014Z,7.12
2023-03-29T09:46:36.423Z,6.86
2023-03-29T09:49:10.370Z,6.95
2023-03-29T09:51:38.773Z,7.10
2023-03-29T09:54:05.947Z,7.00
2023-03-29T09:56:55.524Z,6.96
2023-03-29T09:59:22.303Z,6.96
2023-03-29T10:01:49.068Z,6.81
2023-03-29T10:04:17.626Z,6.96
2023-03-29T10:06:54.220Z,7.19
2023-03-29T10:09:24.338Z,7.35
2023-03-29T10:12:02.282Z,7.48
2023-03-29T10:14:32.663Z,7.49
2023-03-29T10:16:59.815Z,7.36
2023-03-29T10:19:34.830Z,7.37
2023-03-29T10:22:06.895Z,7.61
2023-03-29T10:24:53.708Z,7.77
2023-03-29T10:27:24.034Z,7.78
2023-03-29T10:29:51.994Z,7.59
2023-03-29T10:32:30.423Z,7.72
2023-03-29T10:35:19.962Z,7.85
2023-03-29T10:37:52.168Z,7.98
2023-03-29T10:40:34.695Z,8.38
2023-03-29T10:43:12.665Z,8.40
2023-03-29T10:45:41.136Z,7.92
2023-03-29T10:48:14.772Z,8.26
2023-03-29T10:50:58.675Z,8.55
2023-03-29T10:53:29.217Z,8.81
2023-03-29T10:56:21.227Z,9.04
2023-03-29T10:58:59.682Z,9.22
2023-03-29T11:01:52.443Z,9.55
2023-03-29T11:04:28.703Z,9.48
2023-03-29T11:07:01.537Z,9.48
2023-03-29T11:09:47.974Z,9.32
2023-03-29T11:12:31.085Z,9.34
2023-03-29T11:14:57.835Z,9.18
2023-03-29T11:17:45.657Z,8.89
2023-03-29T11:20:31.318Z,9.01
2023-03-29T11:23:20.179Z,8.92
2023-03-29T11:26:23.414Z,8.91
2023-03-29T11:29:03.284Z,8.87
2023-03-29T11:32:00.323Z,8.67
2023-03-29T11:34:37.061Z,8.78
2023-03-29T11:37:23.100Z,8.42
2023-03-29T11:40:27.997Z,8.66
2023-03-29T11:42:58.264Z,9.02
2023-03-29T11:45:50.168Z,9.42
2023-03-29T11:48:24.193Z,9.64
2023-03-29T11:51:13.646Z,9.67
2023-03-29T11:53:51.318Z,9.82
2023-03-29T11:56:29.387Z,9.52
2023-03-29T11:59:03.054Z,9.90
2023-03-29T12:01:42.545Z,10.22
2023-03-29T12:04:22.978Z,10.46
2023-03-29T12:07:28.180Z,10.94
2023-03-29T12:10:23.591Z,11.00
2023-03-29T12:13:12.890Z,11.79
2023-03-29T12:15:45.622Z,13.98
2023-03-29T12:18:22.296Z,17.06
2023-03-29T12:20:57.545Z,15.76
2023-03-29T12:23:25.739Z,15.62
2023-03-29T12:26:13.998Z,16.73
2023-03-29T12:28:40.657Z,16.01
2023-03-29T12:31:44.577Z,14.78
2023-03-29T12:34:35.358Z,13.24
2023-03-29T12:37:44.937Z,12.32
2023-03-29T12:40:44.066Z,12.08
2023-03-29T12:43:43.380Z,11.34
2023-03-29T12:46:33.129Z,11.68
2023-03-29T12:49:07.759Z,11.35
2023-03-29T12:51:36.914Z,11.69
2023-03-29T12:54:21.231Z,11.82
2023-03-29T12:56:58.899Z,12.01
2023-03-29T12:59:39.753Z,11.15
2023-03-29T13:02:22.128Z,11.02
2023-03-29T13:04:56.469Z,10.06
2023-03-29T13:07:27.573Z,10.11
2023-03-29T13:10:03.726Z,10.59
2023-03-29T13:12:45.800Z,10.17
2023-03-29T13:15:22.246Z,10.13
2023-03-29T13:17:59.770Z,10.30
2023-03-29T13:21:11.094Z,10.94
2023-03-29T13:23:59.829Z,12.37
2023-03-29T13:26:51.086Z,12.27
2023-03-29T13:29:36.555Z,12.56
2023-03-29T13:32:29.666Z,12.74
2023-03-29T13:35:23.759Z,12.32
2023-03-29T13:38:16.374Z,12.50
2023-03-29T13:40:56.795Z,12.84
2023-03-29T13:43:47.560Z,13.39
2023-03-29T13:46:23.361Z,13.38
2023-03-29T13:49:05.755Z,13.41
2023-03-29T13:51:39.693Z,14.40
2023-03-29T13:54:32.654Z,16.00
2023-03-29T13:57:17.962Z,17.10
2023-03-29T13:59:47.735Z,16.30
2023-03-29T14:02:22.162Z,15.00
2023-03-29T14:04:52.199Z,14.63
2023-03-29T14:07:26.207Z,17.79
2023-03-29T14:09:54.982Z,20.19
2023-03-29T14:12:22.785Z,21.26
2023-03-29T14:15:01.489Z,20.72
2023-03-29T14:17:29.064Z,22.35
2023-03-29T14:19:58.444Z,21.75
2023-03-29T14:22:31.208Z,21.36
2023-03-29T14:25:02.600Z,21.20
2023-03-29T14:27:32.397Z,21.70
2023-03-29T14:30:00.236Z,21.23
2023-03-29T14:32:31.474Z,21.05
2023-03-29T14:34:58.954Z,21.67
2023-03-29T14:37:29.330Z,20.19
2023-03-29T14:39:59.270Z,21.38
2023-03-29T14:42:28.720Z,21.59
2023-03-29T14:45:07.272Z,21.20
2023-03-29T14:47:35.182Z,18.63
2023-03-29T14:50:04.081Z,19.36
2023-03-29T14:52:32.065Z,19.38
2023-03-29T14:55:01.868Z,20.00
2023-03-29T14:57:34.838Z,18.17
2023-03-29T15:00:26.047Z,16.71
2023-03-29T15:02:55.814Z,14.62
2023-03-29T15:05:25.556Z,13.31
2023-03-29T15:07:56.276Z,12.39
2023-03-29T15:10:23.738Z,11.80
2023-03-29T15:12:51.170Z,11.00
2023-03-29T15:15:18.769Z,10.17
2023-03-29T15:17:51.034Z,10.05
2023-03-29T15:20:27.770Z,9.66
2023-03-29T15:23:08.039Z,9.45
2023-03-29T15:25:46.008Z,9.58
2023-03-29T15:28:33.861Z,9.34
2023-03-29T15:31:10.919Z,9.26
2023-03-29T15:33:39.787Z,8.97
2023-03-29T15:36:08.688Z,9.25
2023-03-29T15:38:44.099Z,9.23
2023-03-29T15:41:13.567Z,9.38
2023-03-29T15:43:41.382Z,9.31
2023-03-29T15:46:11.203Z,9.05
2023-03-29T15:48:38.510Z,8.74
2023-03-29T15:51:06.916Z,8.41
2023-03-29T15:53:35.449Z,8.46
2023-03-29T15:56:05.529Z,8.48
2023-03-29T15:58:34.820Z,8.33
2023-03-29T16:01:34.520Z,8.17
2023-03-29T16:04:06.890Z,8.00
2023-03-29T16:06:35.006Z,8.10
2023-03-29T16:09:02.276Z,8.29
2023-03-29T16:11:29.444Z,8.38
2023-03-29T16:13:56.967Z,8.27
2023-03-29T16:16:23.956Z,8.14
2023-03-29T16:18:51.227Z,8.04
2023-03-29T16:21:22.137Z,8.14
2023-03-29T16:23:48.853Z,8.16
2023-03-29T16:26:17.173Z,8.09
2023-03-29T16:28:44.090Z,8.27
2023-03-29T16:31:12.413Z,8.14
2023-03-29T16:33:40.254Z,7.85
2023-03-29T16:36:08.075Z,7.65
2023-03-29T16:38:34.927Z,7.70
2023-03-29T16:41:02.122Z,7.65
2023-03-29T16:43:29.603Z,7.55
2023-03-29T16:45:57.043Z,7.78
2023-03-29T16:48:24.063Z,7.75
2023-03-29T16:50:50.941Z,7.54
2023-03-29T16:53:21.613Z,7.36
2023-03-29T16:55:48.755Z,7.53
2023-03-29T16:58:15.607Z,7.57
2023-03-29T17:00:44.388Z,7.43
2023-03-29T17:03:13.122Z,7.25
2023-03-29T17:05:41.871Z,7.27
2023-03-29T17:08:10.439Z,7.20
2023-03-29T17:10:41.091Z,7.06
2023-03-29T17:13:09.165Z,7.08
2023-03-29T17:15:39.376Z,7.15
2023-03-29T17:18:07.313Z,7.14
2023-03-29T17:20:34.820Z,6.95
2023-03-29T17:23:01.899Z,6.89
2023-03-29T17:25:29.015Z,6.78
2023-03-29T17:27:56.394Z,6.74
2023-03-29T17:30:23.973Z,6.65
2023-03-29T17:32:53.089Z,6.61
2023-03-29T17:35:20.401Z,6.58
2023-03-29T17:37:47.304Z,6.54
2023-03-29T17:40:14.189Z,6.51
2023-03-29T17:42:42.020Z,6.44
2023-03-29T17:45:10.331Z,6.40
2023-03-29T17:47:38.020Z,6.37
2023-03-29T17:50:06.201Z,6.32
2023-03-29T17:52:32.940Z,6.30
2023-03-29T17:54:59.584Z,6.31
2023-03-29T17:57:26.401Z,6.27
2023-03-29T17:59:53.388Z,6.12
2023-03-29T18:02:22.863Z,6.05
2023-03-29T18:04:50.509Z,5.91
2023-03-29T18:07:17.504Z,5.90
2023-03-29T18:09:44.258Z,5.78
2023-03-29T18:12:12.696Z,5.58
2023-03-29T18:14:40.863Z,5.43
2023-03-29T18:17:08.402Z,5.25
2023-03-29T18:19:35.840Z,5.13
2023-03-29T18:22:02.761Z,5.08
2023-03-29T18:24:29.568Z,5.12
2023-03-29T18:26:56.724Z,5.08
2023-03-29T18:29:24.463Z,4.88
2023-03-29T18:31:52.841Z,4.69
2023-03-29T18:34:20.476Z,4.62
2023-03-29T18:36:47.602Z,4.55
2023-03-29T18:39:14.292Z,4.43
2023-03-29T18:41:41.344Z,4.30
2023-03-29T18:44:08.235Z,4.17
2023-03-29T18:46:35.573Z,4.06
2023-03-29T18:49:02.705Z,3.95
2023-03-29T18:51:31.566Z,3.87
2023-03-29T18:53:58.411Z,3.75
2023-03-29T18:56:26.068Z,3.74
2023-03-29T18:58:53.806Z,3.67
2023-03-29T19:01:21.308Z,3.62
2023-03-29T19:03:48.223Z,3.58
2023-03-29T19:06:16.759Z,3.51
2023-03-29T19:08:43.439Z,3.43
2023-03-29T19:11:14.175Z,3.43
2023-03-29T19:13:41.151Z,3.32
2023-03-29T19:16:09.615Z,3.27
2023-03-29T19:18:36.664Z,3.20
2023-03-29T19:23:30.668Z,3.16
2023-03-29T19:26:00.333Z,3.10
2023-03-29T19:28:28.222Z,3.05
2023-03-29T19:30:56.718Z,3.00
2023-03-29T19:33:23.479Z,3.00
2023-03-29T19:35:51.788Z,2.99
2023-03-29T19:38:19.394Z,2.96
2023-03-29T19:40:47.580Z,2.90
2023-03-29T19:43:16.627Z,2.90
2023-03-29T19:45:44.366Z,2.84
2023-03-29T19:48:21.749Z,2.83
2023-03-29T19:50:57.893Z,2.71
2023-03-29T19:53:31.283Z,2.66
2023-03-29T19:56:04.886Z,2.67
2023-03-29T19:58:34.667Z,2.59
2023-03-29T20:01:05.964Z,2.59
2023-03-29T20:03:36.810Z,2.62
2023-03-29T20:06:10.640Z,2.54
2023-03-29T20:08:42.446Z,2.54
2023-03-29T20:11:17.364Z,2.50
2023-03-29T20:13:45.678Z,2.39
2023-03-29T20:16:17.083Z,2.30
2023-03-29T20:18:45.803Z,2.28
2023-03-29T20:21:17.279Z,2.28
2023-03-29T20:23:46.242Z,2.26
2023-03-29T20:26:13.408Z,2.26
2023-03-29T20:28:41.311Z,2.25
2023-03-29T20:31:11.825Z,2.24
2023-03-29T20:33:39.874Z,2.13
2023-03-29T20:36:07.320Z,2.15
2023-03-29T20:38:35.465Z,2.05
2023-03-29T20:41:04.439Z,1.96
2023-03-29T20:43:39.697Z,1.92
2023-03-29T20:46:16.592Z,1.86
2023-03-29T20:48:53.601Z,1.84
2023-03-29T20:51:28.952Z,1.78
2023-03-29T20:54:06.102Z,1.79
2023-03-29T20:56:43.244Z,1.76
2023-03-29T20:59:11.187Z,1.71
2023-03-29T21:01:41.220Z,1.61
2023-03-29T21:04:11.887Z,1.63
2023-03-29T21:06:41.174Z,1.61
2023-03-29T21:09:08.763Z,1.56
2023-03-29T21:11:36.268Z,1.60
2023-03-29T21:14:04.948Z,1.59
2023-03-29T21:16:34.752Z,1.52
2023-03-29T21:19:02.228Z,1.48
2023-03-29T21:21:30.843Z,1.44
2023-03-29T21:24:03.248Z,1.45
2023-03-29T21:26:32.260Z,1.45
2023-03-29T21:28:59.252Z,1.45
2023-03-29T21:31:27.099Z,1.35
2023-03-29T21:33:56.547Z,1.35
2023-03-29T21:36:25.808Z,1.32
2023-03-29T21:38:53.160Z,1.24
2023-03-29T21:41:21.844Z,1.24
2023-03-29T21:43:50.072Z,1.30
2023-03-29T21:46:17.025Z,1.31
2023-03-29T21:48:43.968Z,1.29
2023-03-29T21:51:12.285Z,1.24
2023-03-29T21:53:39.171Z,1.20
2023-03-29T21:56:06.780Z,1.32
2023-03-29T21:58:33.716Z,1.39
2023-03-29T22:01:03.799Z,1.48
2023-03-29T22:03:30.807Z,1.59
2023-03-29T22:06:08.585Z,1.65
2023-03-29T22:08:38.845Z,1.71
2023-03-29T22:11:16.427Z,1.64
2023-03-29T22:13:44.142Z,1.63
2023-03-29T22:16:18.736Z,1.57
2023-03-29T22:18:49.753Z,1.69
2023-03-29T22:21:26.559Z,1.71
2023-03-29T22:23:55.577Z,1.63
2023-03-29T22:26:27.765Z,1.36
2023-03-29T22:28:56.174Z,1.32
2023-03-29T22:31:24.740Z,1.35
2023-03-29T22:33:51.631Z,1.38
2023-03-29T22:36:28.439Z,1.40
2023-03-29T22:38:56.034Z,1.53
2023-03-29T22:41:24.279Z,1.65
2023-03-29T22:43:55.491Z,1.79
2023-03-29T22:46:23.624Z,1.78
2023-03-29T22:48:51.326Z,1.78
2023-03-29T22:51:18.568Z,1.89
2023-03-29T22:53:47.106Z,1.86
2023-03-29T22:56:15.689Z,1.90
2023-03-29T22:58:43.074Z,1.96
2023-03-29T23:01:09.930Z,2.01
2023-03-29T23:03:37.037Z,2.02
2023-03-29T23:06:05.017Z,2.16
2023-03-29T23:08:33.127Z,2.22
2023-03-29T23:11:00.667Z,2.24
2023-03-29T23:13:29.152Z,2.23
2023-03-29T23:15:59.205Z,2.30
2023-03-29T23:18:27.820Z,2.38
2023-03-29T23:20:56.567Z,2.36
2023-03-29T23:23:24.692Z,2.37
2023-03-29T23:25:53.073Z,2.36
2023-03-29T23:28:23.455Z,2.41
2023-03-29T23:31:05.821Z,2.56
2023-03-29T23:33:35.512Z,2.57
2023-03-29T23:36:04.683Z,2.67
2023-03-29T23:38:34.386Z,2.63
2023-03-29T23:41:03.926Z,2.59
2023-03-29T23:43:34.176Z,2.57
2023-03-29T23:46:03.355Z,2.57
2023-03-29T23:48:30.636Z,2.63
2023-03-29T23:50:57.445Z,2.68
2023-03-29T23:53:28.454Z,2.77
2023-03-29T23:56:03.654Z,2.75
2023-03-29T23:58:32.959Z,2.76
